Woodside, Delaware
Current Conditions -  °F | °C
As of 1:58 AM on Monday 22 Dec 2014 (Local Time) from KDOV Reporting Station
Clear Clear  
Wind Chill: 26°   Ceiling: Unl
Heat Index: 26°   Visibility: 10mi
Dew Point: 25°   Wind: 3mph
Humidity: 96%   Direction: 320°NW
Pressure: 30.31"   Gusts: NA
Location:  39.07°N, 75.57°W
Report Text: KDOV 220658Z AUTO 32003KT 10SM CLR M03/M04 A3031 RMK AO2 SLP268 T10321037
Loading
Personal Weather Stations






























Interactive Weather Map New forecast layout! Learn more

10-Day Weather Forecast

Advertisements
Track Severe Weather on mobile